createdAt,value
2018-06-27T00:00:08.641Z,15.71
2018-06-27T00:00:53.998Z,15.69
2018-06-27T00:01:54.019Z,15.68
2018-06-27T00:02:54.047Z,15.68
2018-06-27T00:03:54.062Z,15.64
2018-06-27T00:04:54.083Z,15.59
2018-06-27T00:05:54.105Z,15.53
2018-06-27T00:06:53.884Z,15.54
2018-06-27T00:07:54.148Z,15.6
2018-06-27T00:08:54.172Z,15.6
2018-06-27T00:10:08.856Z,15.56
2018-06-27T00:10:54.219Z,15.54
2018-06-27T00:11:54.253Z,15.59
2018-06-27T00:12:54.269Z,15.54
2018-06-27T00:13:54.288Z,15.56
2018-06-27T00:14:54.309Z,15.49
2018-06-27T00:15:54.342Z,15.51
2018-06-27T00:16:54.097Z,15.5
2018-06-27T00:18:54.405Z,15.51
2018-06-27T00:19:54.420Z,15.46
2018-06-27T00:20:54.184Z,15.47
2018-06-27T00:21:54.213Z,15.53
2018-06-27T00:22:54.532Z,15.51
2018-06-27T00:23:54.610Z,15.47
2018-06-27T00:24:54.554Z,15.43
2018-06-27T00:25:54.560Z,15.39
2018-06-27T00:26:54.586Z,15.39
2018-06-27T00:27:54.611Z,15.43
2018-06-27T00:28:54.618Z,15.46
2018-06-27T00:29:54.644Z,15.34
2018-06-27T00:30:54.673Z,15.31
2018-06-27T00:32:09.357Z,15.25
2018-06-27T00:32:54.463Z,15.25
2018-06-27T00:33:54.980Z,15.23
2018-06-27T00:35:09.427Z,15.27
2018-06-27T00:35:54.780Z,15.28
2018-06-27T00:36:54.805Z,15.27
2018-06-27T00:37:54.925Z,15.31
2018-06-27T00:38:54.858Z,15.32
2018-06-27T00:39:54.882Z,15.23
2018-06-27T00:40:54.639Z,15.21
2018-06-27T00:41:54.662Z,15.23
2018-06-27T00:43:54.963Z,15.23
2018-06-27T00:44:54.980Z,15.16
2018-06-27T00:45:55.005Z,15.19
2018-06-27T00:46:55.027Z,15.19
2018-06-27T00:48:09.720Z,15.09
2018-06-27T00:48:55.069Z,15.19
2018-06-27T00:49:55.105Z,15.21
2018-06-27T00:50:54.856Z,15.2
2018-06-27T00:51:54.888Z,15.17
2018-06-27T00:53:55.184Z,15.17
2018-06-27T00:54:55.350Z,15.2
2018-06-27T00:55:55.233Z,15.25
2018-06-27T00:56:55.255Z,15.27
2018-06-27T00:57:55.276Z,15.27
2018-06-27T00:58:55.037Z,15.2
2018-06-27T00:59:55.315Z,15.21
2018-06-27T01:00:55.338Z,15.21
2018-06-27T01:01:55.366Z,15.19
2018-06-27T01:02:55.382Z,15.19
2018-06-27T01:04:10.066Z,15.23
2018-06-27T01:04:55.425Z,15.25
2018-06-27T01:05:55.455Z,15.23
2018-06-27T01:07:55.492Z,15.23
2018-06-27T01:08:55.615Z,15.2
2018-06-27T01:09:55.537Z,15.2
2018-06-27T01:10:55.566Z,15.2
2018-06-27T01:12:10.244Z,15.19
2018-06-27T01:12:55.602Z,15.23
2018-06-27T01:13:55.628Z,15.28
2018-06-27T01:15:10.309Z,15.28
2018-06-27T01:15:55.669Z,15.31
2018-06-27T01:16:55.740Z,15.29
2018-06-27T01:17:55.714Z,15.27
2018-06-27T01:18:55.747Z,15.31
2018-06-27T01:20:10.552Z,15.29
2018-06-27T01:20:55.782Z,15.34
2018-06-27T01:21:55.806Z,15.28
2018-06-27T01:22:55.827Z,15.31
2018-06-27T01:23:55.853Z,15.38
2018-06-27T01:24:55.871Z,15.29
2018-06-27T01:25:55.893Z,15.27
2018-06-27T01:26:55.915Z,15.29
2018-06-27T01:28:10.603Z,15.2
2018-06-27T01:28:55.959Z,15.2
2018-06-27T01:29:55.981Z,15.28
2018-06-27T01:30:56.004Z,15.28
2018-06-27T01:31:55.768Z,15.28
2018-06-27T01:32:56.051Z,15.27
2018-06-27T01:33:55.815Z,15.2
2018-06-27T01:35:10.755Z,15.23
2018-06-27T01:35:56.116Z,15.27
2018-06-27T01:37:56.162Z,15.19
2018-06-27T01:38:56.183Z,15.16
2018-06-27T01:39:55.953Z,15.1
2018-06-27T01:40:56.226Z,15.09
2018-06-27T01:42:10.913Z,15.11
2018-06-27T01:43:10.935Z,15.09
2018-06-27T01:43:56.293Z,15.1
2018-06-27T01:44:56.317Z,15.11
2018-06-27T01:45:56.446Z,15.02
2018-06-27T01:46:56.372Z,15.11
2018-06-27T01:47:56.124Z,15.1
2018-06-27T01:48:56.412Z,15.07
2018-06-27T01:49:56.170Z,15.03
2018-06-27T01:50:56.450Z,15.09
2018-06-27T01:51:56.215Z,15.02
2018-06-27T01:52:56.493Z,15.03
2018-06-27T01:53:56.513Z,14.98
2018-06-27T01:55:56.563Z,15.03
2018-06-27T01:56:56.581Z,14.99
2018-06-27T01:57:56.602Z,14.94
2018-06-27T01:59:11.289Z,14.94
2018-06-27T01:59:56.646Z,14.98
2018-06-27T02:00:56.677Z,14.89
2018-06-27T02:01:56.693Z,14.92
2018-06-27T02:02:56.714Z,14.92
2018-06-27T02:03:56.738Z,14.94
2018-06-27T02:04:56.759Z,14.92
2018-06-27T02:05:56.781Z,14.92
2018-06-27T02:07:11.465Z,14.89
2018-06-27T02:07:56.823Z,14.92
2018-06-27T02:08:56.852Z,14.89
2018-06-27T02:09:56.918Z,14.91
2018-06-27T02:10:56.891Z,14.94
2018-06-27T02:11:56.664Z,14.95
2018-06-27T02:12:56.938Z,14.91
2018-06-27T02:13:56.957Z,14.8
2018-06-27T02:15:11.640Z,14.86
2018-06-27T02:15:57.001Z,14.8
2018-06-27T02:16:57.023Z,14.81
2018-06-27T02:18:11.450Z,14.73
2018-06-27T02:18:56.813Z,14.75
2018-06-27T02:20:57.114Z,14.73
2018-06-27T02:21:57.136Z,14.69
2018-06-27T02:23:11.817Z,14.62
2018-06-27T02:23:57.180Z,14.68
2018-06-27T02:24:57.202Z,14.68
2018-06-27T02:25:57.221Z,14.68
2018-06-27T02:26:57.246Z,14.54
2018-06-27T02:27:57.266Z,14.55
2018-06-27T02:28:57.289Z,14.64
2018-06-27T02:29:57.312Z,14.6
2018-06-27T02:30:57.349Z,14.6
2018-06-27T02:31:57.353Z,14.51
2018-06-27T02:32:57.380Z,14.57
2018-06-27T02:33:57.403Z,14.6
2018-06-27T02:34:57.424Z,14.55
2018-06-27T02:35:57.188Z,14.47
2018-06-27T02:36:57.467Z,14.52
2018-06-27T02:37:57.493Z,14.54
2018-06-27T02:39:12.176Z,14.6
2018-06-27T02:39:57.532Z,14.51
2018-06-27T02:40:57.555Z,14.55
2018-06-27T02:41:57.318Z,14.47
2018-06-27T02:42:57.602Z,14.64
2018-06-27T02:44:57.648Z,14.55
2018-06-27T02:45:57.669Z,14.54
2018-06-27T02:46:57.692Z,14.52
2018-06-27T02:47:57.711Z,14.47
2018-06-27T02:48:57.733Z,14.46
2018-06-27T02:49:58.284Z,14.46
2018-06-27T02:50:57.788Z,14.51
2018-06-27T02:51:57.849Z,14.51
2018-06-27T02:53:57.845Z,14.47
2018-06-27T02:55:12.529Z,14.47
2018-06-27T02:55:57.884Z,14.45
2018-06-27T02:56:57.910Z,14.4
2018-06-27T02:57:57.926Z,14.47
2018-06-27T02:58:57.957Z,14.52
2018-06-27T02:59:57.715Z,14.5
2018-06-27T03:00:57.733Z,14.46
2018-06-27T03:01:58.014Z,14.4
2018-06-27T03:02:58.040Z,14.47
2018-06-27T03:03:58.062Z,14.37
2018-06-27T03:04:58.091Z,14.39
2018-06-27T03:05:58.104Z,14.39
2018-06-27T03:06:58.128Z,14.43
2018-06-27T03:07:58.148Z,14.43
2018-06-27T03:08:58.175Z,14.43
2018-06-27T03:10:12.852Z,14.43
2018-06-27T03:10:57.966Z,14.46
2018-06-27T03:11:58.240Z,14.37
2018-06-27T03:12:58.344Z,14.4
2018-06-27T03:13:58.288Z,14.46
2018-06-27T03:14:58.305Z,14.46
2018-06-27T03:15:58.068Z,14.4
2018-06-27T03:16:58.344Z,14.46
2018-06-27T03:17:58.122Z,14.39
2018-06-27T03:19:58.419Z,14.43
2018-06-27T03:20:58.434Z,14.43
2018-06-27T03:21:58.199Z,14.42
2018-06-27T03:22:58.475Z,14.39
2018-06-27T03:23:58.500Z,14.42
2018-06-27T03:25:58.544Z,14.54
2018-06-27T03:28:58.357Z,14.52
2018-06-27T03:30:58.426Z,14.54
2018-06-27T03:31:58.429Z,14.52
2018-06-27T03:32:58.454Z,14.52
2018-06-27T03:33:58.721Z,14.47
2018-06-27T03:34:58.740Z,14.62
2018-06-27T03:35:58.770Z,14.6
2018-06-27T03:36:58.788Z,14.58
2018-06-27T03:37:58.548Z,14.6
2018-06-27T03:38:58.833Z,14.68
2018-06-27T03:39:58.854Z,14.6
2018-06-27T03:40:58.879Z,14.65
2018-06-27T03:42:13.558Z,14.75
2018-06-27T03:42:58.924Z,14.7
2018-06-27T03:44:58.966Z,14.77
2018-06-27T03:45:58.725Z,14.72
2018-06-27T03:46:58.752Z,14.65
2018-06-27T03:47:59.027Z,14.72
2018-06-27T03:48:59.050Z,14.77
2018-06-27T03:49:59.074Z,14.81
2018-06-27T03:50:59.099Z,14.83
2018-06-27T03:51:58.605Z,14.89
2018-06-27T03:52:59.138Z,14.96
2018-06-27T03:53:59.168Z,15.02
2018-06-27T03:54:59.184Z,15.06
2018-06-27T03:55:58.950Z,14.95
2018-06-27T03:56:58.972Z,15.03
2018-06-27T03:58:13.920Z,15.09
2018-06-27T03:58:59.388Z,15.06
2018-06-27T03:59:59.296Z,15.07
2018-06-27T04:00:59.322Z,15.21
2018-06-27T04:02:59.366Z,15.27
2018-06-27T04:03:59.382Z,15.35
2018-06-27T04:04:59.154Z,15.46
2018-06-27T04:05:59.173Z,15.49
2018-06-27T04:06:59.454Z,15.53
2018-06-27T04:07:59.481Z,15.62
2018-06-27T04:08:59.503Z,15.54
2018-06-27T04:09:59.523Z,15.56
2018-06-27T04:10:59.546Z,15.71
2018-06-27T04:11:59.308Z,15.84
2018-06-27T04:13:00.078Z,15.94
2018-06-27T04:14:14.274Z,16.28
2018-06-27T04:14:59.381Z,16.23
2018-06-27T04:15:59.661Z,16.58
2018-06-27T04:16:59.688Z,16.89
2018-06-27T04:18:14.466Z,17.51
2018-06-27T04:18:59.726Z,17.68
2018-06-27T04:19:59.749Z,18.05
2018-06-27T04:20:59.524Z,18.1
2018-06-27T04:22:14.458Z,18.26
2018-06-27T04:22:59.820Z,18.47
2018-06-27T04:23:59.846Z,18.85
2018-06-27T04:24:59.612Z,19.21
2018-06-27T04:25:59.660Z,19.62
2018-06-27T04:26:59.917Z,20.17
2018-06-27T04:27:59.941Z,20.62
2018-06-27T04:28:59.707Z,20.76
2018-06-27T04:30:14.651Z,21.31
2018-06-27T04:31:00.016Z,21.31
2018-06-27T04:35:00.118Z,23.69
2018-06-27T04:36:00.331Z,24.2
2018-06-27T04:37:00.171Z,24.58
2018-06-27T04:38:14.859Z,24.45
2018-06-27T04:39:00.226Z,24.45
2018-06-27T04:40:00.251Z,24.58
2018-06-27T04:41:00.029Z,24.91
2018-06-27T04:42:00.309Z,24.77
2018-06-27T04:43:00.344Z,24.8
2018-06-27T04:44:00.366Z,24.78
2018-06-27T04:45:15.059Z,25.02
2018-06-27T04:47:00.448Z,24.1
2018-06-27T04:48:15.148Z,23.98
2018-06-27T04:49:00.508Z,24.39
2018-06-27T04:50:00.546Z,25.2
2018-06-27T04:51:00.318Z,25.57
2018-06-27T04:52:00.799Z,25.99
2018-06-27T04:53:00.630Z,26.6
2018-06-27T04:54:00.656Z,27.25
2018-06-27T04:55:00.976Z,27.25
2018-06-27T04:56:00.464Z,27.87
2018-06-27T04:58:00.782Z,28.92
2018-06-27T04:59:00.557Z,28.44
2018-06-27T05:00:00.584Z,28.46
2018-06-27T05:01:00.879Z,28.56
2018-06-27T05:02:00.907Z,28.3
2018-06-27T05:04:00.972Z,28.29
2018-06-27T05:05:01.000Z,28.48
2018-06-27T05:06:01.035Z,27.99
2018-06-27T05:07:01.070Z,27.69
2018-06-27T05:08:01.107Z,27.7
2018-06-27T05:09:01.136Z,28.17
2018-06-27T05:10:00.909Z,28.25
2018-06-27T05:11:01.204Z,28.64
2018-06-27T05:12:00.975Z,29.27
2018-06-27T05:13:01.007Z,29.65
2018-06-27T05:14:01.047Z,29.43
2018-06-27T05:15:01.336Z,29.46
2018-06-27T05:16:01.491Z,30.1
2018-06-27T05:17:15.809Z,30.34
2018-06-27T05:18:01.437Z,30.43
2018-06-27T05:19:01.210Z,30.42
2018-06-27T05:20:00.987Z,30.98
2018-06-27T05:21:01.540Z,31.47
2018-06-27T05:22:16.235Z,31.12
2018-06-27T05:23:01.605Z,31.26
2018-06-27T05:24:01.376Z,30.23
2018-06-27T05:25:01.154Z,30.13
2018-06-27T05:26:01.703Z,29.74
2018-06-27T05:27:01.737Z,29.27
2018-06-27T05:28:01.516Z,29.57
2018-06-27T05:29:01.857Z,30.49
2018-06-27T05:30:01.847Z,31.29
2018-06-27T05:32:01.911Z,30.76
2018-06-27T05:33:16.352Z,30.38
2018-06-27T05:34:01.818Z,30.82
2018-06-27T05:35:02.015Z,30.11
2018-06-27T05:37:02.084Z,30.08
2018-06-27T05:38:02.117Z,30.99
2018-06-27T05:39:02.153Z,31.56
2018-06-27T05:40:16.854Z,31.13
2018-06-27T05:41:16.886Z,30.86
2018-06-27T05:42:02.260Z,30.77
2018-06-27T05:43:16.956Z,30.75
2018-06-27T05:44:02.330Z,31.1
2018-06-27T05:45:02.364Z,30.02
2018-06-27T05:46:02.472Z,29.53
2018-06-27T05:47:02.438Z,28.68
2018-06-27T05:48:02.471Z,28.31
2018-06-27T05:49:16.910Z,29.09
2018-06-27T05:50:02.397Z,29
2018-06-27T05:51:02.578Z,29
2018-06-27T05:52:02.355Z,28.19
2018-06-27T05:53:02.751Z,28.14
2018-06-27T05:54:17.349Z,28.52
2018-06-27T05:55:02.459Z,28.96
2018-06-27T05:56:02.495Z,29.58
2018-06-27T05:57:02.787Z,29.55
2018-06-27T05:58:02.896Z,30.11
2018-06-27T05:59:02.865Z,30.31
2018-06-27T06:00:02.902Z,30.22
2018-06-27T06:01:02.934Z,29.74
2018-06-27T06:02:02.968Z,29.11
2018-06-27T06:03:03.007Z,29.87
2018-06-27T06:04:03.040Z,30.47
2018-06-27T06:05:17.744Z,30.67
2018-06-27T06:06:03.118Z,30.84
2018-06-27T06:08:02.924Z,30.86
2018-06-27T06:09:03.218Z,30.49
2018-06-27T06:10:03.401Z,30.19
2018-06-27T06:11:03.040Z,30.46
2018-06-27T06:12:03.333Z,31.35
2018-06-27T06:13:03.468Z,31.61
2018-06-27T06:14:03.409Z,31.92
2018-06-27T06:15:03.438Z,31.84
2018-06-27T06:16:03.469Z,31.38
2018-06-27T06:17:03.506Z,30.86
2018-06-27T06:18:03.548Z,31.51
2018-06-27T06:19:03.578Z,32.25
2018-06-27T06:20:18.281Z,32.75
2018-06-27T06:21:03.654Z,32.81
2018-06-27T06:23:03.728Z,31.25
2018-06-27T06:24:03.767Z,31.58
2018-06-27T06:25:18.470Z,31.07
2018-06-27T06:26:03.836Z,30.94
2018-06-27T06:27:03.616Z,31.62
2018-06-27T06:28:18.573Z,32.77
2018-06-27T06:29:18.610Z,33.01
2018-06-27T06:30:03.992Z,32.99
2018-06-27T06:31:04.017Z,33.23
2018-06-27T06:32:03.564Z,32.96
2018-06-27T06:33:04.090Z,33.49
2018-06-27T06:34:03.870Z,33.72
2018-06-27T06:35:03.908Z,33.44
2018-06-27T06:36:03.944Z,33.73
2018-06-27T06:37:03.981Z,33.41
2018-06-27T06:38:04.022Z,33.79
2018-06-27T06:40:04.089Z,32.35
2018-06-27T06:42:04.437Z,31.25
2018-06-27T06:43:04.209Z,32.11
2018-06-27T06:44:04.238Z,32.55
2018-06-27T06:45:04.572Z,32.21
2018-06-27T06:46:18.980Z,31.75
2018-06-27T06:47:19.272Z,32.21
2018-06-27T06:48:04.388Z,32.26
2018-06-27T06:49:04.686Z,32.21
2018-06-27T06:50:04.718Z,32.38
2018-06-27T06:51:04.766Z,32.35
2018-06-27T06:52:19.726Z,32.45
2018-06-27T06:54:04.613Z,31.95
2018-06-27T06:55:04.660Z,32.08
2018-06-27T06:56:04.969Z,32.62
2018-06-27T06:57:04.462Z,32.18
2018-06-27T06:58:05.018Z,31.63
2018-06-27T06:59:04.801Z,31.29
2018-06-27T07:00:05.093Z,31.23
2018-06-27T07:01:04.876Z,30.72
2018-06-27T07:02:04.906Z,30.55
2018-06-27T07:03:04.943Z,29.73
2018-06-27T07:04:05.240Z,29.36
2018-06-27T07:05:05.200Z,28.98
2018-06-27T07:06:05.155Z,29.89
2018-06-27T07:07:05.093Z,29.27
2018-06-27T07:08:20.052Z,29.08
2018-06-27T07:09:05.163Z,29
2018-06-27T07:10:05.461Z,29.19
2018-06-27T07:11:05.395Z,29
2018-06-27T07:12:05.534Z,29.16
2018-06-27T07:13:05.573Z,29.24
2018-06-27T07:14:05.347Z,29.8
2018-06-27T07:15:20.307Z,29.97
2018-06-27T07:16:05.677Z,30.16
2018-06-27T07:17:20.377Z,30.46
2018-06-27T07:18:05.749Z,29.92
2018-06-27T07:19:05.783Z,30.61
2018-06-27T07:20:05.563Z,29.87
2018-06-27T07:21:05.855Z,28.71
2018-06-27T07:22:06.072Z,29.51
2018-06-27T07:23:05.934Z,29.61
2018-06-27T07:24:20.634Z,29.48
2018-06-27T07:25:05.747Z,28.9
2018-06-27T07:26:05.786Z,28.77
2018-06-27T07:27:06.076Z,28.3
2018-06-27T07:28:06.110Z,27.4
2018-06-27T07:29:06.156Z,27.43
2018-06-27T07:30:06.053Z,27.63
2018-06-27T07:31:05.978Z,27.03
2018-06-27T07:32:06.020Z,26.91
2018-06-27T07:33:06.063Z,26.12
2018-06-27T07:34:06.325Z,25.73
2018-06-27T07:35:06.370Z,25.76
2018-06-27T07:36:05.924Z,25.87
2018-06-27T07:37:06.478Z,26.35
2018-06-27T07:38:06.200Z,26.3
2018-06-27T07:39:06.259Z,27.09
2018-06-27T07:41:06.300Z,27.55
2018-06-27T07:42:06.603Z,27.57
2018-06-27T07:43:06.370Z,27.07
2018-06-27T07:45:06.701Z,26.07
2018-06-27T07:46:06.468Z,25.27
2018-06-27T07:47:06.761Z,24.69
2018-06-27T07:48:06.795Z,25.24
2018-06-27T07:49:06.828Z,26.05
2018-06-27T07:50:21.260Z,26.85
2018-06-27T07:51:06.891Z,26.82
2018-06-27T07:52:06.666Z,26.15
2018-06-27T07:53:06.956Z,25.13
2018-06-27T07:54:06.730Z,25.35
2018-06-27T07:55:21.680Z,25.72
2018-06-27T07:57:06.571Z,27
2018-06-27T07:58:07.115Z,26.57
2018-06-27T08:00:07.181Z,26.43
2018-06-27T08:01:06.954Z,26.02
2018-06-27T08:02:21.905Z,26.21
2018-06-27T08:03:07.278Z,26.06
2018-06-27T08:04:07.048Z,26.45
2018-06-27T08:05:07.078Z,27.39
2018-06-27T08:06:06.852Z,27.69
2018-06-27T08:07:07.148Z,27.99
2018-06-27T08:08:07.184Z,28.58
2018-06-27T08:09:07.211Z,28.93
2018-06-27T08:10:06.982Z,28.73
2018-06-27T08:11:07.277Z,28
2018-06-27T08:12:07.305Z,26.62
2018-06-27T08:13:07.597Z,26.48
2018-06-27T08:14:07.370Z,27.02
2018-06-27T08:15:07.660Z,27.36
2018-06-27T08:16:07.437Z,27.49
2018-06-27T08:17:07.467Z,27.28
2018-06-27T08:18:07.799Z,26.65
2018-06-27T08:19:22.453Z,25.97
2018-06-27T08:20:07.305Z,25.42
2018-06-27T08:21:07.860Z,25.4
2018-06-27T08:22:07.905Z,25.79
2018-06-27T08:23:08.014Z,26.18
2018-06-27T08:24:07.960Z,27.29
2018-06-27T08:25:07.980Z,28.11
2018-06-27T08:26:07.517Z,27.72
2018-06-27T08:27:22.708Z,27.7
2018-06-27T08:28:08.075Z,28.19
2018-06-27T08:29:08.108Z,29.08
2018-06-27T08:31:08.174Z,30.16
2018-06-27T08:32:08.210Z,30.1
2018-06-27T08:33:07.991Z,29.41
2018-06-27T08:34:22.931Z,28.55
2018-06-27T08:35:08.042Z,28.14
2018-06-27T08:36:22.993Z,27.82
2018-06-27T08:37:08.376Z,27.62
2018-06-27T08:39:08.441Z,28.19
2018-06-27T08:40:08.464Z,28.39
2018-06-27T08:41:08.498Z,28.4
2018-06-27T08:42:08.534Z,28.04
2018-06-27T08:43:23.219Z,27.13
2018-06-27T08:44:08.592Z,26.67
2018-06-27T08:45:08.621Z,26.48
2018-06-27T08:46:08.656Z,26.01
2018-06-27T08:47:08.688Z,26.29
2018-06-27T08:48:08.465Z,26.25
2018-06-27T08:49:08.488Z,26.72
2018-06-27T08:50:23.672Z,27.85
2018-06-27T08:51:23.537Z,28.17
2018-06-27T08:52:23.503Z,28.04
2018-06-27T08:53:08.612Z,28.09
2018-06-27T08:54:08.904Z,28.74
2018-06-27T08:55:08.937Z,29.26
2018-06-27T08:56:08.965Z,29.36
2018-06-27T08:58:08.768Z,29.85
2018-06-27T08:59:23.720Z,29.71
2018-06-27T09:00:08.833Z,29.63
2018-06-27T09:01:08.606Z,28.98
2018-06-27T09:02:08.896Z,28.36
2018-06-27T09:03:09.191Z,27.54
2018-06-27T09:04:09.223Z,27.43
2018-06-27T09:05:23.916Z,27.32
2018-06-27T09:06:09.282Z,27.03
2018-06-27T09:07:23.973Z,26.66
2018-06-27T09:08:09.082Z,27
2018-06-27T09:09:09.377Z,26.84
2018-06-27T09:10:09.404Z,26.69
2018-06-27T09:11:09.435Z,26.84
2018-06-27T09:12:09.465Z,27.1
2018-06-27T09:13:09.493Z,26.73
2018-06-27T09:14:09.527Z,25.95
2018-06-27T09:15:24.220Z,25.6
2018-06-27T09:16:09.590Z,25.82
2018-06-27T09:17:09.616Z,26.52
2018-06-27T09:19:09.677Z,27.78
2018-06-27T09:20:24.382Z,28.25
2018-06-27T09:21:09.735Z,28.06
2018-06-27T09:22:09.780Z,27.28
2018-06-27T09:23:24.457Z,26.44
2018-06-27T09:24:09.857Z,26.07
2018-06-27T09:25:09.856Z,25.64
2018-06-27T09:26:09.886Z,25.43
2018-06-27T09:27:09.661Z,25.28
2018-06-27T09:28:09.944Z,25.39
2018-06-27T09:29:09.973Z,25.6
2018-06-27T09:31:10.158Z,25.76
2018-06-27T09:32:09.815Z,26.26
2018-06-27T09:33:10.102Z,27.41
2018-06-27T09:34:10.284Z,28.64
2018-06-27T09:36:09.923Z,29.16
2018-06-27T09:37:09.953Z,29
2018-06-27T09:38:10.252Z,29.46
2018-06-27T09:39:10.275Z,30.38
2018-06-27T09:40:10.043Z,30.62
2018-06-27T09:41:10.346Z,30.8
2018-06-27T09:42:10.257Z,30.58
2018-06-27T09:43:10.396Z,30.34
2018-06-27T09:45:10.460Z,29.16
2018-06-27T09:46:10.223Z,28.67
2018-06-27T09:48:10.295Z,28.71
2018-06-27T09:49:10.576Z,28.44
2018-06-27T09:50:10.616Z,28.95
2018-06-27T09:51:10.477Z,29.04
2018-06-27T09:52:10.414Z,28.62
2018-06-27T09:53:10.705Z,28.55
2018-06-27T09:54:10.470Z,28.83
2018-06-27T09:55:10.499Z,29.42
2018-06-27T09:56:10.791Z,29.78
2018-06-27T09:57:11.190Z,30.46
2018-06-27T09:58:10.589Z,31.02
2018-06-27T09:59:10.628Z,30.8
2018-06-27T10:00:10.924Z,30.31
2018-06-27T10:01:10.681Z,30.11
2018-06-27T10:03:10.743Z,29.61
2018-06-27T10:04:10.810Z,29.63
2018-06-27T10:05:10.806Z,29.36
2018-06-27T10:06:11.093Z,29.12
2018-06-27T10:07:11.125Z,28.03
2018-06-27T10:08:10.896Z,28.09
2018-06-27T10:09:10.927Z,28.59
2018-06-27T10:10:10.957Z,28.62
2018-06-27T10:11:10.987Z,28.58
2018-06-27T10:12:11.017Z,29.15
2018-06-27T10:13:11.313Z,29.23
2018-06-27T10:14:11.342Z,29.45
2018-06-27T10:15:10.850Z,29.95
2018-06-27T10:16:11.135Z,30.39
2018-06-27T10:18:25.859Z,31.62
2018-06-27T10:19:26.156Z,32.11
2018-06-27T10:20:11.519Z,32.55
2018-06-27T10:21:11.548Z,33.09
2018-06-27T10:22:11.594Z,32.63
2018-06-27T10:23:11.609Z,30.82
2018-06-27T10:24:11.384Z,30.04
2018-06-27T10:25:11.669Z,29.41
2018-06-27T10:26:11.699Z,28.85
2018-06-27T10:27:11.472Z,28.81
2018-06-27T10:28:11.760Z,29.05
2018-06-27T10:29:11.793Z,29.49
2018-06-27T10:30:11.820Z,30.04
2018-06-27T10:31:11.849Z,30.38
2018-06-27T10:32:11.879Z,30.65
2018-06-27T10:33:11.911Z,30.72
2018-06-27T10:34:26.605Z,30.16
2018-06-27T10:35:11.714Z,29.49
2018-06-27T10:36:12.020Z,29.14
2018-06-27T10:38:11.805Z,28.18
2018-06-27T10:39:12.159Z,27.65
2018-06-27T10:40:12.125Z,27.44
2018-06-27T10:41:26.817Z,27.79
2018-06-27T10:42:12.182Z,28.27
2018-06-27T10:43:11.955Z,28.51
2018-06-27T10:44:12.244Z,28.73
2018-06-27T10:45:12.278Z,28.9
2018-06-27T10:46:12.052Z,29.08
2018-06-27T10:47:12.338Z,29.19
2018-06-27T10:48:12.361Z,29
2018-06-27T10:49:12.391Z,28.76
2018-06-27T10:50:26.824Z,28.4
2018-06-27T10:52:12.487Z,28.49
2018-06-27T10:53:12.250Z,27.55
2018-06-27T10:54:12.283Z,26.77
2018-06-27T10:55:12.575Z,26.54
2018-06-27T10:56:12.598Z,27.02
2018-06-27T10:57:12.370Z,27.43
2018-06-27T10:58:27.322Z,27.54
2018-06-27T10:59:12.431Z,27.19
2018-06-27T11:00:12.716Z,27.14
2018-06-27T11:02:12.525Z,26.94
2018-06-27T11:03:27.483Z,26.94
2018-06-27T11:04:12.845Z,26.97
2018-06-27T11:05:27.643Z,27.19
2018-06-27T11:06:12.926Z,27.28
2018-06-27T11:07:12.926Z,27.22
2018-06-27T11:08:12.960Z,27.1
2018-06-27T11:09:12.728Z,27.31
2018-06-27T11:10:13.012Z,27.43
2018-06-27T11:11:13.040Z,27.34
2018-06-27T11:12:13.074Z,27.34
2018-06-27T11:13:27.763Z,27.1
2018-06-27T11:14:13.325Z,26.95
2018-06-27T11:15:13.159Z,26.92
2018-06-27T11:16:13.187Z,26.8
2018-06-27T11:17:13.216Z,26.8
2018-06-27T11:18:13.299Z,26.7
2018-06-27T11:19:13.282Z,26.58
2018-06-27T11:20:13.367Z,26.6
2018-06-27T11:21:13.344Z,26.62
2018-06-27T11:22:13.361Z,26.43
2018-06-27T11:23:28.155Z,26.1
2018-06-27T11:24:13.418Z,26.1
2018-06-27T11:25:13.453Z,26.47
2018-06-27T11:26:13.474Z,26.58
2018-06-27T11:27:13.515Z,26.72
2018-06-27T11:28:13.540Z,27.04
2018-06-27T11:29:13.301Z,26.99
2018-06-27T11:30:28.252Z,26.85
2018-06-27T11:31:28.020Z,26.69
2018-06-27T11:32:13.391Z,26.75
2018-06-27T11:33:13.674Z,26.8
2018-06-27T11:34:13.713Z,26.92
2018-06-27T11:35:13.729Z,26.88
2018-06-27T11:36:13.759Z,26.85
2018-06-27T11:39:13.588Z,26.81
2018-06-27T11:40:13.643Z,26.88
2018-06-27T11:41:13.906Z,26.85
2018-06-27T11:42:13.933Z,26.85
2018-06-27T11:43:13.795Z,26.91
2018-06-27T11:44:13.988Z,27.13
2018-06-27T11:45:14.014Z,27.1
2018-06-27T11:46:13.531Z,27.21
2018-06-27T11:47:13.812Z,27.34
2018-06-27T11:48:14.101Z,27.32
2018-06-27T11:49:14.137Z,27.41
2018-06-27T11:50:13.901Z,27.36
2018-06-27T11:51:14.197Z,27.93
2018-06-27T11:52:13.955Z,28.15
2018-06-27T11:53:28.646Z,28.37
2018-06-27T11:55:14.037Z,28.64
2018-06-27T11:56:14.327Z,28.61
2018-06-27T11:57:14.364Z,28.58
2018-06-27T11:58:14.381Z,28.51
2018-06-27T11:59:14.411Z,28.66
2018-06-27T12:00:14.189Z,28.78
2018-06-27T12:01:29.132Z,28.71
2018-06-27T12:02:14.502Z,28.49
2018-06-27T12:03:14.529Z,28.51
2018-06-27T12:04:14.301Z,28.09
2018-06-27T12:05:14.608Z,27.85
2018-06-27T12:06:14.354Z,27.69
2018-06-27T12:07:14.642Z,27.69
2018-06-27T12:08:14.410Z,27.72
2018-06-27T12:09:29.100Z,27.41
2018-06-27T12:10:14.728Z,27.5
2018-06-27T12:11:29.424Z,27.51
2018-06-27T12:12:14.794Z,27.67
2018-06-27T12:13:14.814Z,27.79
2018-06-27T12:14:14.842Z,27.93
2018-06-27T12:15:14.869Z,27.69
2018-06-27T12:16:14.640Z,27.31
2018-06-27T12:17:29.589Z,27.24
2018-06-27T12:18:14.695Z,27.22
2018-06-27T12:20:15.028Z,26.91
2018-06-27T12:21:14.524Z,27.07
2018-06-27T12:22:15.067Z,27.25
2018-06-27T12:23:15.098Z,27.62
2018-06-27T12:24:15.128Z,27.82
2018-06-27T12:25:29.814Z,27.97
2018-06-27T12:26:15.196Z,28
2018-06-27T12:27:15.212Z,28.18
2018-06-27T12:28:14.985Z,28.33
2018-06-27T12:29:15.272Z,28.09
2018-06-27T12:30:15.297Z,27.92
2018-06-27T12:31:15.323Z,27.74
2018-06-27T12:32:14.836Z,27.57
2018-06-27T12:33:30.043Z,27.37
2018-06-27T12:34:15.154Z,27.34
2018-06-27T12:35:15.178Z,27.02
2018-06-27T12:36:15.207Z,27.13
2018-06-27T12:37:15.499Z,27.1
2018-06-27T12:38:15.525Z,27.1
2018-06-27T12:39:15.296Z,27.09
2018-06-27T12:40:30.241Z,27.02
2018-06-27T12:41:15.617Z,26.91
2018-06-27T12:42:15.635Z,26.77
2018-06-27T12:43:15.408Z,26.7
2018-06-27T12:44:15.451Z,26.47
2018-06-27T12:45:15.465Z,26.44
2018-06-27T12:46:15.757Z,26.5
2018-06-27T12:47:15.576Z,26.76
2018-06-27T12:48:30.467Z,27.1
2018-06-27T12:49:15.831Z,27.24
2018-06-27T12:50:15.750Z,27.46
2018-06-27T12:51:15.632Z,27.69
2018-06-27T12:52:15.918Z,27.75
2018-06-27T12:53:15.694Z,27.74
2018-06-27T12:54:15.973Z,27.79
2018-06-27T12:55:16.005Z,27.9
2018-06-27T12:57:15.800Z,27.5
2018-06-27T12:59:30.780Z,27.99
2018-06-27T13:00:15.885Z,28.17
2018-06-27T13:01:15.920Z,27.93
2018-06-27T13:02:16.209Z,27.44
2018-06-27T13:03:16.245Z,27.29
2018-06-27T13:04:16.255Z,27
2018-06-27T13:05:16.028Z,26.62
2018-06-27T13:06:16.059Z,26.48
2018-06-27T13:07:16.601Z,26.05
2018-06-27T13:08:16.113Z,26.06
2018-06-27T13:09:17.065Z,25.99
2018-06-27T13:10:16.424Z,25.72
2018-06-27T13:11:16.459Z,25.73
2018-06-27T13:12:30.887Z,25.92
2018-06-27T13:13:16.507Z,26.05
2018-06-27T13:14:16.543Z,25.99
2018-06-27T13:15:16.568Z,25.95
2018-06-27T13:16:16.334Z,25.94
2018-06-27T13:17:16.363Z,25.75
2018-06-27T13:18:16.654Z,25.85
2018-06-27T13:19:16.675Z,25.72
2018-06-27T13:20:16.708Z,25.69
2018-06-27T13:21:16.735Z,25.8
2018-06-27T13:22:31.419Z,26.07
2018-06-27T13:23:16.787Z,25.98
2018-06-27T13:24:16.558Z,26.07
2018-06-27T13:25:16.840Z,26.2
2018-06-27T13:26:16.611Z,26.47
2018-06-27T13:27:16.904Z,26.73
2018-06-27T13:28:31.328Z,26.91
2018-06-27T13:29:16.957Z,27.04
2018-06-27T13:31:17.005Z,27.5
2018-06-27T13:32:17.035Z,27.13
2018-06-27T13:33:17.064Z,26.99
2018-06-27T13:34:16.835Z,27.03
2018-06-27T13:35:16.860Z,27.03
2018-06-27T13:36:16.732Z,27.13
2018-06-27T13:37:31.836Z,27.04
2018-06-27T13:38:17.211Z,27.13
2018-06-27T13:39:16.973Z,27.6
2018-06-27T13:40:17.001Z,27.65
2018-06-27T13:41:17.390Z,27.7
2018-06-27T13:42:17.314Z,27.46
2018-06-27T13:43:17.513Z,27.1
2018-06-27T13:46:17.427Z,27.27
2018-06-27T13:47:17.457Z,27.31
2018-06-27T13:48:17.482Z,27.22
2018-06-27T13:49:17.519Z,26.48
2018-06-27T13:50:32.203Z,26.2
2018-06-27T13:51:17.579Z,25.83